logo
Search for airport 
image banner adimage banner adimage banner ad
image banner ad

UCFL - Issyk-Kul

Located in Tamchy, Kyrgyzstan

ICAO - , IATA -

Data provided by Airmate  

General information

Coordinates: N42°35'9" E76°42'7"
Elevation is 5426 feet MSL.
Magnetic variation is +5° East
View others Airports in Issyk-Kul

Operational data

Special qualification required
Current time UTC:
Current local time:
Weather
METAR: UCFL 131900Z 00000MPS 9999 BKN030CB 09/01 Q1014
TAF: TAF UCFL 131649Z 1318/1418 33003G08MPS 9999 BKN030CB OVC100 TEMPO 1318/1402 26003G08MPS BECMG 1405/1406 16003G08MPS TEMPO 1405/1412 28003G08MPS 3000 -SHRA BKN015CB BECMG 1412/1414 34003G08MPS
View NOTAMs / SUP AIP / TFR affecting this airport [VIEW]
Communications frequencies: [VIEW]

Runways:

RWY identifierQFULength (ft)Width (ft)SurfaceLDA (ft)
0774°12467148CONC12467
25254°12467148CONC12467

Airport contact information

Address: Tamchy Kyrgyzstan

Satellite view of UCFL